BAW912 KLAX-PHNL
Flight info
| Callsign | BAW912 |
|---|---|
| Flight time | 2h 42m |
| Altitude | 36000 |
| Route | SUMMR2 DINTY DUETS DADIE R576 DIALO/N0442F380 R576 DENNS MAGGI3 |
| Aircraft | CONC/H-SDE2E3FGHIRYW/X |
Departure
| Time | 2026-04-26 19:30 |
|---|---|
| Airport | Los Angeles International Airport (KLAX) |
Arrival
| Time | 2026-04-26 22:13 |
|---|---|
| Airport | Daniel K. Inouye International Airport (PHNL) |
| Time | Latitude | Longitude | Altitude | Speed | Heading |
|---|---|---|---|---|---|
| 2026-04-26 19:18 | 33.94767 | -118.40062 | 132 ft | 0 kts | 239° |
| 2026-04-26 19:24 | 33.94776 | -118.40050 | 124 ft | 2 kts | 275° |
| 2026-04-26 19:24 | 33.94758 | -118.40015 | 123 ft | 1 kts | 360° |
| 2026-04-26 19:27 | 33.94779 | -118.40016 | 125 ft | 7 kts | 356° |
| 2026-04-26 19:27 | 33.94843 | -118.40053 | 128 ft | 10 kts | 328° |
| 2026-04-26 19:27 | 33.94910 | -118.40071 | 129 ft | 9 kts | 20° |
| 2026-04-26 19:28 | 33.94926 | -118.40012 | 132 ft | 8 kts | 82° |
| 2026-04-26 19:28 | 33.94938 | -118.39945 | 132 ft | 7 kts | 67° |
| 2026-04-26 19:28 | 33.94964 | -118.39915 | 132 ft | 3 kts | 32° |
| 2026-04-26 19:28 | 33.94987 | -118.39913 | 129 ft | 8 kts | 2° |
| 2026-04-26 19:29 | 33.95042 | -118.39953 | 126 ft | 4 kts | 277° |
| 2026-04-26 19:29 | 33.95039 | -118.39972 | 128 ft | 0 kts | 263° |
| 2026-04-26 19:30 | 33.95025 | -118.40102 | 132 ft | 62 kts | 263° |
| 2026-04-26 19:30 | 33.94920 | -118.41118 | 132 ft | 183 kts | 263° |
| 2026-04-26 19:30 | 33.94732 | -118.42993 | 522 ft | 237 kts | 261° |
| 2026-04-26 19:30 | 33.94578 | -118.44294 | 1030 ft | 236 kts | 261° |
| 2026-04-26 19:31 | 33.94336 | -118.46916 | 2020 ft | 239 kts | 266° |
| 2026-04-26 19:31 | 33.94269 | -118.48901 | 2792 ft | 232 kts | 268° |
| 2026-04-26 19:31 | 33.94209 | -118.50874 | 3547 ft | 243 kts | 267° |
| 2026-04-26 19:31 | 33.94093 | -118.52936 | 4318 ft | 245 kts | 265° |
| 2026-04-26 19:32 | 33.93930 | -118.55094 | 4790 ft | 290 kts | 265° |
| 2026-04-26 19:32 | 33.93707 | -118.57719 | 5612 ft | 320 kts | 264° |
| 2026-04-26 19:32 | 33.93496 | -118.60190 | 6376 ft | 275 kts | 265° |
| 2026-04-26 19:32 | 33.93320 | -118.62317 | 7094 ft | 250 kts | 265° |
| 2026-04-26 19:33 | 33.93156 | -118.64445 | 7864 ft | 255 kts | 265° |
| 2026-04-26 19:33 | 33.92994 | -118.66570 | 8638 ft | 257 kts | 266° |
| 2026-04-26 19:33 | 33.92828 | -118.68730 | 9445 ft | 258 kts | 266° |
| 2026-04-26 19:33 | 33.92662 | -118.70883 | 10192 ft | 267 kts | 266° |
| 2026-04-26 19:34 | 33.92490 | -118.73107 | 10941 ft | 270 kts | 266° |
| 2026-04-26 19:34 | 33.92307 | -118.75505 | 11721 ft | 307 kts | 266° |
| 2026-04-26 19:34 | 33.92099 | -118.78196 | 12515 ft | 329 kts | 266° |
| 2026-04-26 19:34 | 33.91901 | -118.80903 | 13306 ft | 329 kts | 266° |
| 2026-04-26 19:35 | 33.91757 | -118.83685 | 14091 ft | 335 kts | 270° |
| 2026-04-26 19:35 | 33.91772 | -118.86509 | 14827 ft | 339 kts | 272° |
| 2026-04-26 19:35 | 33.91856 | -118.89386 | 15581 ft | 343 kts | 273° |
| 2026-04-26 19:35 | 33.91956 | -118.92255 | 16336 ft | 350 kts | 273° |
| 2026-04-26 19:36 | 33.92052 | -118.95199 | 17116 ft | 355 kts | 273° |
| 2026-04-26 19:36 | 33.92136 | -118.97199 | 17664 ft | 359 kts | 278° |
| 2026-04-26 19:36 | 33.92964 | -119.01192 | 18728 ft | 387 kts | 290° |
| 2026-04-26 19:36 | 33.94001 | -119.04369 | 19074 ft | 430 kts | 292° |
| 2026-04-26 19:37 | 33.95403 | -119.07741 | 19348 ft | 471 kts | 300° |
| 2026-04-26 19:37 | 33.97161 | -119.11218 | 20175 ft | 490 kts | 301° |
| 2026-04-26 19:37 | 33.98986 | -119.14737 | 21400 ft | 496 kts | 302° |
| 2026-04-26 19:37 | 34.01197 | -119.17933 | 22524 ft | 511 kts | 313° |
| 2026-04-26 19:38 | 34.03847 | -119.20918 | 23201 ft | 523 kts | 319° |
| 2026-04-26 19:38 | 34.06745 | -119.23565 | 23563 ft | 527 kts | 321° |
| 2026-04-26 19:38 | 34.09761 | -119.26185 | 23719 ft | 531 kts | 322° |
| 2026-04-26 19:38 | 34.12769 | -119.28767 | 23813 ft | 532 kts | 322° |
| 2026-04-26 19:39 | 34.15777 | -119.31349 | 23871 ft | 533 kts | 322° |
| 2026-04-26 19:39 | 34.18772 | -119.33927 | 23900 ft | 534 kts | 322° |
| 2026-04-26 19:39 | 34.21820 | -119.36556 | 23925 ft | 535 kts | 322° |
| 2026-04-26 19:39 | 34.24836 | -119.39160 | 23940 ft | 535 kts | 322° |
| 2026-04-26 19:40 | 34.27866 | -119.41779 | 23949 ft | 535 kts | 322° |
| 2026-04-26 19:40 | 34.30881 | -119.44387 | 23955 ft | 536 kts | 322° |
| 2026-04-26 19:40 | 34.33944 | -119.47038 | 23954 ft | 536 kts | 322° |
| 2026-04-26 19:40 | 34.36987 | -119.49675 | 23947 ft | 536 kts | 322° |
| 2026-04-26 19:41 | 34.39857 | -119.52506 | 23970 ft | 533 kts | 310° |
| 2026-04-26 19:41 | 34.41939 | -119.56181 | 24036 ft | 530 kts | 293° |
| 2026-04-26 19:41 | 34.42982 | -119.60419 | 24081 ft | 530 kts | 276° |
| 2026-04-26 19:41 | 34.43054 | -119.63393 | 24106 ft | 531 kts | 265° |
| 2026-04-26 19:42 | 34.42194 | -119.69292 | 24095 ft | 533 kts | 258° |
| 2026-04-26 19:42 | 34.41397 | -119.73666 | 24065 ft | 532 kts | 258° |
| 2026-04-26 19:42 | 34.40630 | -119.78018 | 24184 ft | 527 kts | 259° |
| 2026-04-26 19:42 | 34.39884 | -119.82447 | 24969 ft | 549 kts | 259° |
| 2026-04-26 19:43 | 34.39144 | -119.87007 | 26464 ft | 562 kts | 259° |
| 2026-04-26 19:43 | 34.38464 | -119.91724 | 28034 ft | 571 kts | 263° |
| 2026-04-26 19:43 | 34.38054 | -119.96533 | 29708 ft | 581 kts | 264° |
| 2026-04-26 19:43 | 34.37689 | -120.01449 | 30938 ft | 596 kts | 265° |
| 2026-04-26 19:44 | 34.37325 | -120.06556 | 31875 ft | 611 kts | 264° |
| 2026-04-26 19:44 | 34.36967 | -120.11536 | 32749 ft | 584 kts | 264° |
| 2026-04-26 19:44 | 34.36601 | -120.16510 | 33392 ft | 597 kts | 264° |
| 2026-04-26 19:44 | 34.36223 | -120.21620 | 34107 ft | 614 kts | 264° |
| 2026-04-26 19:45 | 34.35840 | -120.26757 | 34704 ft | 630 kts | 264° |
| 2026-04-26 19:45 | 34.35438 | -120.32136 | 35318 ft | 646 kts | 264° |
| 2026-04-26 19:45 | 34.35023 | -120.37647 | 35895 ft | 662 kts | 264° |
| 2026-04-26 19:45 | 34.34578 | -120.43256 | 36425 ft | 676 kts | 261° |
| 2026-04-26 19:46 | 34.33490 | -120.48751 | 36991 ft | 687 kts | 249° |
| 2026-04-26 19:46 | 34.31467 | -120.54053 | 37430 ft | 701 kts | 243° |
| 2026-04-26 19:46 | 34.29266 | -120.59396 | 37868 ft | 713 kts | 245° |
| 2026-04-26 19:46 | 34.27124 | -120.64837 | 38306 ft | 725 kts | 245° |
| 2026-04-26 19:47 | 34.24941 | -120.70371 | 38718 ft | 736 kts | 245° |
| 2026-04-26 19:47 | 34.23450 | -120.74141 | 38922 ft | 743 kts | 245° |
| 2026-04-26 19:47 | 34.20465 | -120.81666 | 39390 ft | 757 kts | 245° |
| 2026-04-26 19:47 | 34.18146 | -120.87495 | 39810 ft | 768 kts | 245° |
| 2026-04-26 19:48 | 34.15822 | -120.93325 | 40271 ft | 782 kts | 245° |
| 2026-04-26 19:48 | 34.13439 | -120.99289 | 40797 ft | 796 kts | 245° |
| 2026-04-26 19:48 | 34.11003 | -121.05374 | 41382 ft | 813 kts | 244° |
| 2026-04-26 19:48 | 34.08514 | -121.11581 | 42051 ft | 831 kts | 244° |
| 2026-04-26 19:49 | 34.05969 | -121.17917 | 42763 ft | 852 kts | 244° |
| 2026-04-26 19:49 | 34.03350 | -121.24423 | 43564 ft | 874 kts | 244° |
| 2026-04-26 19:49 | 34.00661 | -121.31091 | 44368 ft | 897 kts | 244° |
| 2026-04-26 19:49 | 33.97891 | -121.37943 | 45116 ft | 918 kts | 244° |
| 2026-04-26 19:50 | 33.95056 | -121.44943 | 45515 ft | 931 kts | 244° |
| 2026-04-26 19:50 | 33.92191 | -121.52005 | 45862 ft | 944 kts | 244° |
| 2026-04-26 19:50 | 33.89298 | -121.59118 | 46218 ft | 955 kts | 244° |
| 2026-04-26 19:50 | 33.86342 | -121.66372 | 46571 ft | 966 kts | 244° |
| 2026-04-26 19:51 | 33.83383 | -121.73618 | 46904 ft | 975 kts | 244° |
| 2026-04-26 19:51 | 33.80377 | -121.80963 | 47202 ft | 985 kts | 244° |
| 2026-04-26 19:51 | 33.77352 | -121.88338 | 47487 ft | 993 kts | 244° |
| 2026-04-26 19:51 | 33.74257 | -121.95869 | 47747 ft | 1002 kts | 244° |
| 2026-04-26 19:52 | 33.71164 | -122.03378 | 47985 ft | 1009 kts | 244° |
| 2026-04-26 19:52 | 33.68030 | -122.10967 | 48186 ft | 1016 kts | 244° |
| 2026-04-26 19:52 | 33.64894 | -122.18549 | 48559 ft | 1018 kts | 244° |
| 2026-04-26 19:52 | 33.61737 | -122.26161 | 49348 ft | 1020 kts | 244° |
| 2026-04-26 19:53 | 33.58559 | -122.33808 | 50142 ft | 1020 kts | 244° |
| 2026-04-26 19:53 | 33.55434 | -122.41311 | 50920 ft | 1021 kts | 244° |
| 2026-04-26 19:53 | 33.52248 | -122.48945 | 51721 ft | 1021 kts | 244° |
| 2026-04-26 19:53 | 33.49088 | -122.56547 | 52505 ft | 1020 kts | 245° |
| 2026-04-26 19:54 | 33.46532 | -122.64520 | 53384 ft | 1018 kts | 255° |
| 2026-04-26 19:54 | 33.44951 | -122.72767 | 54246 ft | 1016 kts | 259° |
| 2026-04-26 19:54 | 33.43591 | -122.81036 | 54714 ft | 1018 kts | 256° |
| 2026-04-26 19:54 | 33.41923 | -122.89257 | 54905 ft | 1022 kts | 256° |
| 2026-04-26 19:55 | 33.38485 | -123.05833 | 55010 ft | 1033 kts | 255° |
| 2026-04-26 19:55 | 33.34937 | -123.22693 | 55029 ft | 1044 kts | 255° |
| 2026-04-26 19:56 | 33.31376 | -123.39516 | 55019 ft | 1053 kts | 255° |
| 2026-04-26 19:56 | 33.27749 | -123.56544 | 55032 ft | 1062 kts | 255° |
| 2026-04-26 19:57 | 33.24075 | -123.73668 | 55034 ft | 1071 kts | 255° |
| 2026-04-26 19:57 | 33.20319 | -123.91050 | 55039 ft | 1078 kts | 255° |
| 2026-04-26 19:58 | 33.16557 | -124.08334 | 55045 ft | 1085 kts | 255° |
| 2026-04-26 19:58 | 33.12710 | -124.25876 | 55023 ft | 1092 kts | 255° |
| 2026-04-26 19:59 | 33.08832 | -124.43440 | 55064 ft | 1096 kts | 255° |
| 2026-04-26 19:59 | 33.04928 | -124.60968 | 55051 ft | 1101 kts | 255° |
| 2026-04-26 20:00 | 33.00959 | -124.78649 | 55054 ft | 1106 kts | 255° |
| 2026-04-26 20:00 | 32.96972 | -124.96279 | 55033 ft | 1090 kts | 255° |
| 2026-04-26 20:01 | 32.93034 | -125.13569 | 55040 ft | 1085 kts | 254° |
| 2026-04-26 20:01 | 32.89056 | -125.30916 | 55054 ft | 1088 kts | 254° |
| 2026-04-26 20:02 | 32.85038 | -125.48315 | 55066 ft | 1090 kts | 254° |
| 2026-04-26 20:02 | 32.81674 | -125.62792 | 55066 ft | 1094 kts | 254° |
| 2026-04-26 20:03 | 32.76919 | -125.83115 | 55067 ft | 1096 kts | 254° |
| 2026-04-26 20:03 | 32.72813 | -126.00535 | 55072 ft | 1097 kts | 254° |
| 2026-04-26 20:04 | 32.68654 | -126.18060 | 55066 ft | 1098 kts | 254° |
| 2026-04-26 20:04 | 32.64494 | -126.35470 | 55048 ft | 1099 kts | 254° |
| 2026-04-26 20:05 | 32.60315 | -126.52847 | 55071 ft | 1101 kts | 253° |
| 2026-04-26 20:05 | 32.56093 | -126.70282 | 55072 ft | 1103 kts | 253° |
| 2026-04-26 20:06 | 32.51840 | -126.87734 | 55066 ft | 1103 kts | 253° |
| 2026-04-26 20:06 | 32.47549 | -127.05222 | 55066 ft | 1103 kts | 253° |
| 2026-04-26 20:07 | 32.43255 | -127.22610 | 55060 ft | 1104 kts | 253° |
| 2026-04-26 20:07 | 32.38906 | -127.40102 | 55065 ft | 1105 kts | 253° |
| 2026-04-26 20:08 | 32.34558 | -127.57481 | 55058 ft | 1105 kts | 253° |
| 2026-04-26 20:08 | 32.30165 | -127.74926 | 55064 ft | 1104 kts | 253° |
| 2026-04-26 20:09 | 32.25776 | -127.92244 | 55066 ft | 1104 kts | 253° |
| 2026-04-26 20:09 | 32.21333 | -128.09666 | 55065 ft | 1106 kts | 253° |
| 2026-04-26 20:10 | 32.16866 | -128.27071 | 55068 ft | 1107 kts | 253° |
| 2026-04-26 20:10 | 32.12390 | -128.44401 | 55086 ft | 1106 kts | 253° |
| 2026-04-26 20:11 | 32.07875 | -128.61771 | 55080 ft | 1106 kts | 253° |
| 2026-04-26 20:12 | 32.01086 | -128.87690 | 55077 ft | 1106 kts | 252° |
| 2026-04-26 20:12 | 31.96535 | -129.04935 | 55073 ft | 1106 kts | 252° |
| 2026-04-26 20:13 | 31.91939 | -129.22237 | 55082 ft | 1106 kts | 252° |
| 2026-04-26 20:13 | 31.87352 | -129.39409 | 55077 ft | 1105 kts | 252° |
| 2026-04-26 20:14 | 31.82715 | -129.56659 | 55080 ft | 1105 kts | 252° |
| 2026-04-26 20:14 | 31.78830 | -129.71032 | 55086 ft | 1104 kts | 252° |
| 2026-04-26 20:15 | 31.74170 | -129.88179 | 55082 ft | 1105 kts | 252° |
| 2026-04-26 20:15 | 31.69461 | -130.05404 | 55085 ft | 1106 kts | 252° |
| 2026-04-26 20:16 | 31.64766 | -130.22478 | 55092 ft | 1106 kts | 252° |
| 2026-04-26 20:16 | 31.60024 | -130.39620 | 55090 ft | 1107 kts | 252° |
| 2026-04-26 20:17 | 31.55246 | -130.56795 | 55095 ft | 1106 kts | 252° |
| 2026-04-26 20:17 | 31.50465 | -130.73878 | 55094 ft | 1105 kts | 252° |
| 2026-04-26 20:18 | 31.45635 | -130.91038 | 55096 ft | 1104 kts | 252° |
| 2026-04-26 20:18 | 31.40820 | -131.08048 | 55103 ft | 1104 kts | 252° |
| 2026-04-26 20:19 | 31.35954 | -131.25138 | 55108 ft | 1105 kts | 252° |
| 2026-04-26 20:19 | 31.31073 | -131.42186 | 55102 ft | 1105 kts | 251° |
| 2026-04-26 20:20 | 31.26166 | -131.59228 | 55106 ft | 1106 kts | 251° |
| 2026-04-26 20:20 | 31.21226 | -131.76287 | 55107 ft | 1106 kts | 251° |
| 2026-04-26 20:21 | 31.16301 | -131.93201 | 55102 ft | 1105 kts | 251° |
| 2026-04-26 20:21 | 31.11312 | -132.10240 | 55108 ft | 1105 kts | 251° |
| 2026-04-26 20:21 | 31.08817 | -132.18722 | 55564 ft | 1102 kts | 251° |
| 2026-04-26 20:22 | 31.06358 | -132.27057 | 56347 ft | 1100 kts | 251° |
| 2026-04-26 20:22 | 31.03836 | -132.35583 | 56815 ft | 1101 kts | 251° |
| 2026-04-26 20:22 | 31.01331 | -132.44024 | 56989 ft | 1105 kts | 251° |
| 2026-04-26 20:23 | 30.96305 | -132.60898 | 57084 ft | 1105 kts | 251° |
| 2026-04-26 20:23 | 30.91250 | -132.77778 | 57117 ft | 1105 kts | 251° |
| 2026-04-26 20:24 | 30.86168 | -132.94657 | 57119 ft | 1106 kts | 251° |
| 2026-04-26 20:24 | 30.81058 | -133.11536 | 57120 ft | 1107 kts | 251° |
| 2026-04-26 20:25 | 30.75931 | -133.28386 | 57124 ft | 1108 kts | 251° |
| 2026-04-26 20:25 | 30.70755 | -133.45303 | 57125 ft | 1107 kts | 251° |
| 2026-04-26 20:26 | 30.65588 | -133.62102 | 57132 ft | 1106 kts | 251° |
| 2026-04-26 20:26 | 30.60395 | -133.78896 | 57133 ft | 1107 kts | 250° |
| 2026-04-26 20:27 | 30.55159 | -133.95741 | 57140 ft | 1108 kts | 250° |
| 2026-04-26 20:27 | 30.49933 | -134.12470 | 57141 ft | 1108 kts | 250° |
| 2026-04-26 20:28 | 30.44655 | -134.29276 | 57140 ft | 1108 kts | 250° |
| 2026-04-26 20:28 | 30.39351 | -134.46077 | 57138 ft | 1108 kts | 250° |
| 2026-04-26 20:29 | 30.34058 | -134.62760 | 57136 ft | 1108 kts | 250° |
| 2026-04-26 20:29 | 30.28723 | -134.79486 | 57144 ft | 1108 kts | 250° |
| 2026-04-26 20:30 | 30.23342 | -134.96276 | 57148 ft | 1110 kts | 250° |
| 2026-04-26 20:30 | 30.17951 | -135.13010 | 57153 ft | 1111 kts | 250° |
| 2026-04-26 20:31 | 30.12580 | -135.29600 | 57151 ft | 1112 kts | 250° |
| 2026-04-26 20:31 | 30.07140 | -135.46316 | 57142 ft | 1112 kts | 250° |
| 2026-04-26 20:32 | 30.01697 | -135.62963 | 57144 ft | 1111 kts | 250° |
| 2026-04-26 20:32 | 29.96198 | -135.79696 | 57154 ft | 1111 kts | 250° |
| 2026-04-26 20:33 | 29.90705 | -135.96327 | 57157 ft | 1112 kts | 250° |
| 2026-04-26 20:33 | 29.85156 | -136.13049 | 57154 ft | 1114 kts | 250° |
| 2026-04-26 20:34 | 29.79617 | -136.29655 | 57154 ft | 1115 kts | 250° |
| 2026-04-26 20:34 | 29.74060 | -136.46238 | 57165 ft | 1115 kts | 250° |
| 2026-04-26 20:35 | 29.68459 | -136.62869 | 57167 ft | 1115 kts | 250° |
| 2026-04-26 20:35 | 29.62819 | -136.79537 | 57165 ft | 1114 kts | 249° |
| 2026-04-26 20:36 | 29.57214 | -136.96022 | 57162 ft | 1114 kts | 249° |
| 2026-04-26 20:36 | 29.51523 | -137.12680 | 57172 ft | 1116 kts | 249° |
| 2026-04-26 20:37 | 29.45860 | -137.29181 | 57175 ft | 1117 kts | 249° |
| 2026-04-26 20:37 | 29.40133 | -137.45786 | 57172 ft | 1117 kts | 249° |
| 2026-04-26 20:38 | 29.34400 | -137.62333 | 57171 ft | 1116 kts | 249° |
| 2026-04-26 20:38 | 29.28677 | -137.78773 | 57166 ft | 1116 kts | 249° |
| 2026-04-26 20:39 | 29.22880 | -137.95347 | 57169 ft | 1117 kts | 249° |
| 2026-04-26 20:39 | 29.17097 | -138.11807 | 57177 ft | 1118 kts | 249° |
| 2026-04-26 20:40 | 29.11268 | -138.28319 | 57181 ft | 1119 kts | 249° |
| 2026-04-26 20:40 | 29.05412 | -138.44833 | 57166 ft | 1120 kts | 249° |
| 2026-04-26 20:41 | 28.99561 | -138.61258 | 57184 ft | 1120 kts | 249° |
| 2026-04-26 20:41 | 28.93695 | -138.77650 | 57176 ft | 1119 kts | 249° |
| 2026-04-26 20:42 | 28.87794 | -138.94065 | 57177 ft | 1119 kts | 249° |
| 2026-04-26 20:42 | 28.81865 | -139.10485 | 57183 ft | 1119 kts | 249° |
| 2026-04-26 20:43 | 28.75893 | -139.26947 | 57180 ft | 1119 kts | 249° |
| 2026-04-26 20:43 | 28.69944 | -139.43285 | 57178 ft | 1120 kts | 249° |
| 2026-04-26 20:44 | 28.63929 | -139.59661 | 57181 ft | 1122 kts | 249° |
| 2026-04-26 20:44 | 28.57908 | -139.75990 | 57178 ft | 1122 kts | 249° |
| 2026-04-26 20:45 | 28.51845 | -139.92363 | 57179 ft | 1122 kts | 249° |
| 2026-04-26 20:45 | 28.45768 | -140.08700 | 57178 ft | 1121 kts | 249° |
| 2026-04-26 20:46 | 28.39697 | -140.24949 | 57184 ft | 1120 kts | 249° |
| 2026-04-26 20:46 | 28.33579 | -140.41257 | 57185 ft | 1120 kts | 249° |
| 2026-04-26 20:47 | 28.27466 | -140.57478 | 57178 ft | 1121 kts | 249° |
| 2026-04-26 20:47 | 28.21283 | -140.73818 | 57178 ft | 1122 kts | 248° |
| 2026-04-26 20:48 | 28.15133 | -140.90000 | 57175 ft | 1124 kts | 248° |
| 2026-04-26 20:48 | 28.08924 | -141.06267 | 57178 ft | 1124 kts | 248° |
| 2026-04-26 20:49 | 28.02728 | -141.22431 | 57185 ft | 1124 kts | 248° |
| 2026-04-26 20:49 | 27.96453 | -141.38734 | 57179 ft | 1124 kts | 248° |
| 2026-04-26 20:50 | 27.90198 | -141.54916 | 57186 ft | 1124 kts | 248° |
| 2026-04-26 20:50 | 27.83917 | -141.71097 | 57189 ft | 1125 kts | 248° |
| 2026-04-26 20:51 | 27.77603 | -141.87297 | 57183 ft | 1125 kts | 248° |
| 2026-04-26 20:51 | 27.71308 | -142.03382 | 57183 ft | 1126 kts | 248° |
| 2026-04-26 20:52 | 27.64969 | -142.19510 | 57175 ft | 1127 kts | 248° |
| 2026-04-26 20:52 | 27.58607 | -142.35632 | 57180 ft | 1128 kts | 248° |
| 2026-04-26 20:53 | 27.52192 | -142.51824 | 57186 ft | 1127 kts | 248° |
| 2026-04-26 20:53 | 27.45841 | -142.67782 | 57180 ft | 1119 kts | 248° |
| 2026-04-26 20:54 | 27.39497 | -142.83680 | 57180 ft | 1098 kts | 247° |
| 2026-04-26 20:54 | 27.36373 | -142.91470 | 57187 ft | 1085 kts | 247° |
| 2026-04-26 20:54 | 27.33310 | -142.99098 | 57175 ft | 1073 kts | 247° |
| 2026-04-26 20:54 | 27.30221 | -143.06776 | 57147 ft | 1062 kts | 247° |
| 2026-04-26 20:55 | 27.27188 | -143.14304 | 57153 ft | 1051 kts | 247° |
| 2026-04-26 20:55 | 27.24188 | -143.21735 | 57159 ft | 1040 kts | 247° |
| 2026-04-26 20:55 | 27.21205 | -143.29126 | 57173 ft | 1037 kts | 247° |
| 2026-04-26 20:56 | 27.15257 | -143.43780 | 57179 ft | 1037 kts | 246° |
| 2026-04-26 20:56 | 27.09194 | -143.58670 | 57185 ft | 1057 kts | 247° |
| 2026-04-26 20:57 | 27.03028 | -143.73771 | 57178 ft | 1075 kts | 246° |
| 2026-04-26 20:57 | 26.96719 | -143.89157 | 57184 ft | 1092 kts | 246° |
| 2026-04-26 20:58 | 26.90296 | -144.04762 | 57176 ft | 1108 kts | 246° |
| 2026-04-26 20:58 | 26.83855 | -144.20350 | 57173 ft | 1109 kts | 246° |
| 2026-04-26 20:59 | 26.77335 | -144.36070 | 57168 ft | 1111 kts | 246° |
| 2026-04-26 20:59 | 26.70820 | -144.51719 | 57169 ft | 1114 kts | 246° |
| 2026-04-26 21:00 | 26.64219 | -144.67514 | 57181 ft | 1117 kts | 246° |
| 2026-04-26 21:00 | 26.57627 | -144.83228 | 57174 ft | 1120 kts | 246° |
| 2026-04-26 21:01 | 26.50977 | -144.99021 | 57180 ft | 1121 kts | 246° |
| 2026-04-26 21:01 | 26.44378 | -145.14634 | 57178 ft | 1122 kts | 246° |
| 2026-04-26 21:02 | 26.37673 | -145.30437 | 57177 ft | 1124 kts | 246° |
| 2026-04-26 21:02 | 26.30973 | -145.46171 | 57169 ft | 1125 kts | 245° |
| 2026-04-26 21:03 | 26.24248 | -145.61904 | 57171 ft | 1125 kts | 245° |
| 2026-04-26 21:03 | 26.17512 | -145.77607 | 57169 ft | 1127 kts | 245° |
| 2026-04-26 21:04 | 26.11845 | -145.90772 | 57155 ft | 1128 kts | 245° |
| 2026-04-26 21:04 | 26.03923 | -146.09107 | 57185 ft | 1128 kts | 245° |
| 2026-04-26 21:05 | 25.97122 | -146.24803 | 57192 ft | 1129 kts | 245° |
| 2026-04-26 21:05 | 25.91431 | -146.37902 | 57196 ft | 1130 kts | 245° |
| 2026-04-26 21:06 | 25.84570 | -146.53643 | 57196 ft | 1130 kts | 245° |
| 2026-04-26 21:06 | 25.77739 | -146.69258 | 57192 ft | 1131 kts | 245° |
| 2026-04-26 21:07 | 25.70837 | -146.84979 | 57189 ft | 1132 kts | 245° |
| 2026-04-26 21:07 | 25.63926 | -147.00666 | 57189 ft | 1132 kts | 245° |
| 2026-04-26 21:08 | 25.57037 | -147.16243 | 57189 ft | 1132 kts | 245° |
| 2026-04-26 21:08 | 25.50085 | -147.31910 | 57185 ft | 1133 kts | 245° |
| 2026-04-26 21:09 | 25.43107 | -147.47580 | 57182 ft | 1134 kts | 245° |
| 2026-04-26 21:09 | 25.36147 | -147.63154 | 57176 ft | 1133 kts | 244° |
| 2026-04-26 21:10 | 25.29132 | -147.78796 | 57179 ft | 1133 kts | 244° |
| 2026-04-26 21:10 | 25.22132 | -147.94350 | 57171 ft | 1134 kts | 244° |
| 2026-04-26 21:11 | 25.15074 | -148.09977 | 57170 ft | 1134 kts | 244° |
| 2026-04-26 21:11 | 25.08017 | -148.25550 | 57177 ft | 1133 kts | 244° |
| 2026-04-26 21:12 | 25.00992 | -148.40998 | 57167 ft | 1132 kts | 244° |
| 2026-04-26 21:12 | 24.93891 | -148.56560 | 57165 ft | 1134 kts | 244° |
| 2026-04-26 21:13 | 24.86836 | -148.71967 | 57169 ft | 1134 kts | 244° |
| 2026-04-26 21:13 | 24.79722 | -148.87453 | 57169 ft | 1133 kts | 244° |
| 2026-04-26 21:14 | 24.72585 | -149.02935 | 57163 ft | 1132 kts | 244° |
| 2026-04-26 21:14 | 24.65438 | -149.18386 | 57161 ft | 1131 kts | 244° |
| 2026-04-26 21:15 | 24.58296 | -149.33776 | 57163 ft | 1131 kts | 244° |
| 2026-04-26 21:15 | 24.51147 | -149.49129 | 57162 ft | 1132 kts | 244° |
| 2026-04-26 21:16 | 24.43961 | -149.64511 | 57158 ft | 1132 kts | 244° |
| 2026-04-26 21:16 | 24.36791 | -149.79808 | 57158 ft | 1132 kts | 244° |
| 2026-04-26 21:17 | 24.29565 | -149.95173 | 57153 ft | 1131 kts | 244° |
| 2026-04-26 21:17 | 24.22338 | -150.10491 | 57148 ft | 1129 kts | 244° |
| 2026-04-26 21:18 | 24.15128 | -150.25725 | 57150 ft | 1129 kts | 243° |
| 2026-04-26 21:18 | 24.07873 | -150.41003 | 57136 ft | 1130 kts | 243° |
| 2026-04-26 21:19 | 24.00590 | -150.56290 | 57138 ft | 1130 kts | 243° |
| 2026-04-26 21:19 | 23.93348 | -150.71442 | 57141 ft | 1130 kts | 243° |
| 2026-04-26 21:20 | 23.86043 | -150.86679 | 57140 ft | 1129 kts | 243° |
| 2026-04-26 21:20 | 23.78751 | -151.01839 | 57137 ft | 1128 kts | 243° |
| 2026-04-26 21:21 | 23.71433 | -151.17008 | 57138 ft | 1127 kts | 243° |
| 2026-04-26 21:21 | 23.64138 | -151.32080 | 57137 ft | 1127 kts | 243° |
| 2026-04-26 21:22 | 23.56808 | -151.47177 | 57130 ft | 1128 kts | 243° |
| 2026-04-26 21:22 | 23.49495 | -151.62195 | 57129 ft | 1127 kts | 243° |
| 2026-04-26 21:23 | 23.38456 | -151.84773 | 57126 ft | 1127 kts | 243° |
| 2026-04-26 21:23 | 23.31056 | -151.99851 | 57120 ft | 1127 kts | 243° |
| 2026-04-26 21:24 | 23.23676 | -152.14843 | 57121 ft | 1125 kts | 243° |
| 2026-04-26 21:24 | 23.16275 | -152.29833 | 57114 ft | 1124 kts | 243° |
| 2026-04-26 21:25 | 23.08852 | -152.44820 | 57122 ft | 1124 kts | 243° |
| 2026-04-26 21:25 | 23.01419 | -152.59788 | 57122 ft | 1125 kts | 243° |
| 2026-04-26 21:26 | 22.93975 | -152.74611 | 57116 ft | 1126 kts | 243° |
| 2026-04-26 21:26 | 22.86454 | -152.89559 | 57111 ft | 1126 kts | 243° |
| 2026-04-26 21:27 | 22.78967 | -153.04396 | 57109 ft | 1119 kts | 243° |
| 2026-04-26 21:27 | 22.75258 | -153.11730 | 56515 ft | 1105 kts | 243° |
| 2026-04-26 21:27 | 22.71573 | -153.19005 | 55935 ft | 1091 kts | 243° |
| 2026-04-26 21:28 | 22.67958 | -153.26134 | 55399 ft | 1075 kts | 243° |
| 2026-04-26 21:28 | 22.64397 | -153.33145 | 54867 ft | 1053 kts | 243° |
| 2026-04-26 21:28 | 22.60902 | -153.40017 | 54316 ft | 1030 kts | 243° |
| 2026-04-26 21:28 | 22.57479 | -153.46739 | 53787 ft | 1008 kts | 243° |
| 2026-04-26 21:29 | 22.54163 | -153.53244 | 53256 ft | 987 kts | 243° |
| 2026-04-26 21:29 | 22.50870 | -153.59694 | 52722 ft | 966 kts | 243° |
| 2026-04-26 21:29 | 22.47637 | -153.66019 | 52181 ft | 946 kts | 243° |
| 2026-04-26 21:29 | 22.44472 | -153.72202 | 51648 ft | 926 kts | 243° |
| 2026-04-26 21:30 | 22.41397 | -153.78204 | 51113 ft | 906 kts | 243° |
| 2026-04-26 21:30 | 22.38393 | -153.84059 | 50574 ft | 884 kts | 243° |
| 2026-04-26 21:30 | 22.35779 | -153.89937 | 50084 ft | 857 kts | 252° |
| 2026-04-26 21:30 | 22.34237 | -153.96043 | 49420 ft | 822 kts | 263° |
| 2026-04-26 21:31 | 22.33879 | -154.02016 | 48798 ft | 788 kts | 274° |
| 2026-04-26 21:31 | 22.34388 | -154.07854 | 48086 ft | 756 kts | 278° |
| 2026-04-26 21:31 | 22.35073 | -154.13376 | 47347 ft | 726 kts | 278° |
| 2026-04-26 21:31 | 22.35721 | -154.18652 | 46591 ft | 698 kts | 277° |
| 2026-04-26 21:32 | 22.36307 | -154.23739 | 45846 ft | 683 kts | 277° |
| 2026-04-26 21:32 | 22.36872 | -154.28854 | 45118 ft | 703 kts | 277° |
| 2026-04-26 21:32 | 22.37265 | -154.34192 | 44287 ft | 696 kts | 272° |
| 2026-04-26 21:32 | 22.37397 | -154.39285 | 43408 ft | 664 kts | 272° |
| 2026-04-26 21:33 | 22.37500 | -154.44122 | 42553 ft | 634 kts | 272° |
| 2026-04-26 21:33 | 22.37579 | -154.48799 | 41736 ft | 614 kts | 271° |
| 2026-04-26 21:33 | 22.37656 | -154.53392 | 40953 ft | 606 kts | 271° |
| 2026-04-26 21:33 | 22.37735 | -154.57960 | 40201 ft | 602 kts | 271° |
| 2026-04-26 21:34 | 22.37812 | -154.62457 | 39470 ft | 600 kts | 271° |
| 2026-04-26 21:34 | 22.37888 | -154.66913 | 38771 ft | 596 kts | 271° |
| 2026-04-26 21:34 | 22.37964 | -154.71409 | 37927 ft | 592 kts | 272° |
| 2026-04-26 21:34 | 22.38038 | -154.75816 | 37111 ft | 586 kts | 272° |
| 2026-04-26 21:35 | 22.38109 | -154.80154 | 36490 ft | 577 kts | 272° |
| 2026-04-26 21:35 | 22.38180 | -154.84483 | 36220 ft | 568 kts | 272° |
| 2026-04-26 21:35 | 22.38316 | -154.92984 | 36113 ft | 569 kts | 272° |
| 2026-04-26 21:36 | 22.38426 | -155.00102 | 36117 ft | 571 kts | 272° |
| 2026-04-26 21:36 | 22.38576 | -155.10191 | 35481 ft | 578 kts | 272° |
| 2026-04-26 21:37 | 22.38637 | -155.14510 | 34739 ft | 573 kts | 272° |
| 2026-04-26 21:37 | 22.38697 | -155.18797 | 34020 ft | 569 kts | 272° |
| 2026-04-26 21:37 | 22.38757 | -155.23066 | 33241 ft | 567 kts | 272° |
| 2026-04-26 21:37 | 22.38816 | -155.27310 | 32473 ft | 563 kts | 272° |
| 2026-04-26 21:38 | 22.38872 | -155.31527 | 31721 ft | 558 kts | 272° |
| 2026-04-26 21:38 | 22.38926 | -155.35688 | 30983 ft | 553 kts | 272° |
| 2026-04-26 21:38 | 22.38979 | -155.39819 | 30259 ft | 548 kts | 272° |
| 2026-04-26 21:38 | 22.39030 | -155.43920 | 29437 ft | 543 kts | 272° |
| 2026-04-26 21:39 | 22.39080 | -155.47967 | 28620 ft | 536 kts | 272° |
| 2026-04-26 21:39 | 22.39129 | -155.51957 | 27830 ft | 530 kts | 272° |
| 2026-04-26 21:39 | 22.39176 | -155.55926 | 27058 ft | 524 kts | 272° |
| 2026-04-26 21:39 | 22.39222 | -155.59860 | 26297 ft | 518 kts | 272° |
| 2026-04-26 21:40 | 22.39265 | -155.63720 | 25582 ft | 513 kts | 272° |
| 2026-04-26 21:40 | 22.39307 | -155.67541 | 24870 ft | 508 kts | 272° |
| 2026-04-26 21:40 | 22.39349 | -155.71357 | 24177 ft | 503 kts | 272° |
| 2026-04-26 21:40 | 22.39389 | -155.75070 | 23615 ft | 497 kts | 272° |
| 2026-04-26 21:41 | 22.39427 | -155.78787 | 23317 ft | 493 kts | 272° |
| 2026-04-26 21:41 | 22.39466 | -155.82500 | 23194 ft | 491 kts | 272° |
| 2026-04-26 21:41 | 22.39503 | -155.86179 | 22591 ft | 492 kts | 272° |
| 2026-04-26 21:41 | 22.39538 | -155.89837 | 22311 ft | 485 kts | 272° |
| 2026-04-26 21:42 | 22.39573 | -155.93523 | 22196 ft | 484 kts | 272° |
| 2026-04-26 21:42 | 22.39607 | -155.97155 | 22149 ft | 484 kts | 272° |
| 2026-04-26 21:42 | 22.39639 | -156.00773 | 22118 ft | 484 kts | 272° |
| 2026-04-26 21:42 | 22.39672 | -156.04434 | 22112 ft | 484 kts | 272° |
| 2026-04-26 21:43 | 22.39704 | -156.08054 | 22108 ft | 484 kts | 272° |
| 2026-04-26 21:43 | 22.39734 | -156.11661 | 22111 ft | 484 kts | 272° |
| 2026-04-26 21:43 | 22.39764 | -156.15351 | 22105 ft | 485 kts | 272° |
| 2026-04-26 21:43 | 22.39792 | -156.18971 | 22110 ft | 484 kts | 272° |
| 2026-04-26 21:44 | 22.39547 | -156.22586 | 22137 ft | 487 kts | 257° |
| 2026-04-26 21:44 | 22.38288 | -156.26014 | 22144 ft | 493 kts | 240° |
| 2026-04-26 21:44 | 22.36241 | -156.28978 | 22148 ft | 495 kts | 230° |
| 2026-04-26 21:44 | 22.33994 | -156.31825 | 21715 ft | 499 kts | 231° |
| 2026-04-26 21:45 | 22.31816 | -156.34668 | 20973 ft | 490 kts | 232° |
| 2026-04-26 21:45 | 22.29658 | -156.37496 | 20242 ft | 485 kts | 231° |
| 2026-04-26 21:45 | 22.27510 | -156.40298 | 19522 ft | 479 kts | 231° |
| 2026-04-26 21:45 | 22.25405 | -156.43036 | 18827 ft | 473 kts | 231° |
| 2026-04-26 21:46 | 22.23340 | -156.45722 | 18111 ft | 468 kts | 231° |
| 2026-04-26 21:46 | 22.21271 | -156.48410 | 17340 ft | 462 kts | 231° |
| 2026-04-26 21:46 | 22.19226 | -156.51066 | 16578 ft | 457 kts | 231° |
| 2026-04-26 21:46 | 22.17200 | -156.53698 | 15837 ft | 453 kts | 231° |
| 2026-04-26 21:47 | 22.15205 | -156.56288 | 15120 ft | 448 kts | 230° |
| 2026-04-26 21:47 | 22.13209 | -156.58877 | 14409 ft | 443 kts | 230° |
| 2026-04-26 21:47 | 22.11265 | -156.61398 | 13810 ft | 437 kts | 230° |
| 2026-04-26 21:47 | 22.09318 | -156.63922 | 13513 ft | 435 kts | 230° |
| 2026-04-26 21:48 | 22.07393 | -156.66415 | 13402 ft | 433 kts | 230° |
| 2026-04-26 21:48 | 22.05458 | -156.68920 | 13346 ft | 434 kts | 230° |
| 2026-04-26 21:48 | 22.03514 | -156.71437 | 13330 ft | 462 kts | 230° |
| 2026-04-26 21:48 | 22.01332 | -156.74260 | 13326 ft | 496 kts | 230° |
| 2026-04-26 21:49 | 21.99160 | -156.77068 | 13315 ft | 492 kts | 230° |
| 2026-04-26 21:49 | 21.96958 | -156.79915 | 13304 ft | 493 kts | 230° |
| 2026-04-26 21:49 | 21.94756 | -156.82758 | 13299 ft | 492 kts | 230° |
| 2026-04-26 21:49 | 21.92554 | -156.85601 | 13301 ft | 493 kts | 230° |
| 2026-04-26 21:50 | 21.90375 | -156.88413 | 13300 ft | 493 kts | 230° |
| 2026-04-26 21:50 | 21.88916 | -156.90294 | 13300 ft | 493 kts | 230° |
| 2026-04-26 21:50 | 21.85982 | -156.94073 | 13300 ft | 493 kts | 230° |
| 2026-04-26 21:50 | 21.83777 | -156.96914 | 13291 ft | 493 kts | 230° |
| 2026-04-26 21:51 | 21.81582 | -156.99748 | 13291 ft | 493 kts | 230° |
| 2026-04-26 21:51 | 21.79387 | -157.02580 | 13296 ft | 493 kts | 230° |
| 2026-04-26 21:51 | 21.77181 | -157.05423 | 13294 ft | 493 kts | 230° |
| 2026-04-26 21:51 | 21.75055 | -157.08161 | 13273 ft | 458 kts | 230° |
| 2026-04-26 21:52 | 21.73081 | -157.10703 | 13278 ft | 434 kts | 230° |
| 2026-04-26 21:52 | 21.71169 | -157.13162 | 13273 ft | 421 kts | 230° |
| 2026-04-26 21:52 | 21.69337 | -157.15519 | 13271 ft | 391 kts | 230° |
| 2026-04-26 21:52 | 21.67658 | -157.17678 | 13269 ft | 367 kts | 230° |
| 2026-04-26 21:53 | 21.66083 | -157.19702 | 13267 ft | 346 kts | 230° |
| 2026-04-26 21:53 | 21.64579 | -157.21634 | 13263 ft | 327 kts | 230° |
| 2026-04-26 21:53 | 21.63144 | -157.23476 | 13268 ft | 318 kts | 230° |
| 2026-04-26 21:53 | 21.61724 | -157.25300 | 13152 ft | 322 kts | 230° |
| 2026-04-26 21:54 | 21.60254 | -157.27186 | 12373 ft | 332 kts | 230° |
| 2026-04-26 21:54 | 21.58756 | -157.29109 | 11636 ft | 339 kts | 230° |
| 2026-04-26 21:54 | 21.57238 | -157.31055 | 10914 ft | 344 kts | 230° |
| 2026-04-26 21:54 | 21.56206 | -157.32378 | 10443 ft | 347 kts | 230° |
| 2026-04-26 21:55 | 21.54647 | -157.34377 | 9719 ft | 349 kts | 230° |
| 2026-04-26 21:55 | 21.53092 | -157.36372 | 8957 ft | 351 kts | 230° |
| 2026-04-26 21:55 | 21.51519 | -157.38388 | 8196 ft | 352 kts | 229° |
| 2026-04-26 21:55 | 21.49940 | -157.40408 | 7461 ft | 353 kts | 229° |
| 2026-04-26 21:56 | 21.48355 | -157.42435 | 6765 ft | 353 kts | 229° |
| 2026-04-26 21:56 | 21.46808 | -157.44414 | 6375 ft | 343 kts | 229° |
| 2026-04-26 21:56 | 21.45288 | -157.46358 | 6214 ft | 328 kts | 229° |
| 2026-04-26 21:56 | 21.43872 | -157.48170 | 6139 ft | 308 kts | 229° |
| 2026-04-26 21:57 | 21.42533 | -157.49881 | 6108 ft | 289 kts | 228° |
| 2026-04-26 21:57 | 21.41269 | -157.51493 | 6092 ft | 281 kts | 229° |
| 2026-04-26 21:57 | 21.40016 | -157.53092 | 6093 ft | 276 kts | 229° |
| 2026-04-26 21:57 | 21.38785 | -157.54661 | 6086 ft | 276 kts | 229° |
| 2026-04-26 21:58 | 21.37546 | -157.56242 | 6085 ft | 276 kts | 229° |
| 2026-04-26 21:58 | 21.36324 | -157.57803 | 6092 ft | 276 kts | 229° |
| 2026-04-26 21:58 | 21.35093 | -157.59374 | 6084 ft | 264 kts | 229° |
| 2026-04-26 21:58 | 21.33967 | -157.60813 | 6064 ft | 245 kts | 229° |
| 2026-04-26 21:59 | 21.32873 | -157.62206 | 6064 ft | 244 kts | 229° |
| 2026-04-26 21:59 | 21.31776 | -157.63600 | 6066 ft | 244 kts | 229° |
| 2026-04-26 21:59 | 21.30697 | -157.64972 | 6078 ft | 243 kts | 229° |
| 2026-04-26 21:59 | 21.29605 | -157.66361 | 6110 ft | 243 kts | 229° |
| 2026-04-26 22:00 | 21.28513 | -157.67752 | 6099 ft | 243 kts | 229° |
| 2026-04-26 22:00 | 21.27608 | -157.69267 | 6089 ft | 244 kts | 257° |
| 2026-04-26 22:00 | 21.27691 | -157.71030 | 6149 ft | 243 kts | 293° |
| 2026-04-26 22:00 | 21.28416 | -157.72659 | 6148 ft | 242 kts | 297° |
| 2026-04-26 22:01 | 21.28933 | -157.74383 | 5981 ft | 246 kts | 276° |
| 2026-04-26 22:01 | 21.28629 | -157.76203 | 5284 ft | 259 kts | 245° |
| 2026-04-26 22:01 | 21.27791 | -157.77927 | 4801 ft | 260 kts | 238° |
| 2026-04-26 22:01 | 21.26915 | -157.79566 | 4612 ft | 248 kts | 252° |
| 2026-04-26 22:02 | 21.26620 | -157.81308 | 5294 ft | 235 kts | 264° |
| 2026-04-26 22:02 | 21.26444 | -157.83092 | 5441 ft | 248 kts | 265° |
| 2026-04-26 22:02 | 21.26276 | -157.84983 | 4819 ft | 258 kts | 265° |
| 2026-04-26 22:02 | 21.26076 | -157.86877 | 4535 ft | 252 kts | 262° |
| 2026-04-26 22:03 | 21.25799 | -157.88710 | 4396 ft | 246 kts | 260° |
| 2026-04-26 22:03 | 21.25481 | -157.90492 | 4334 ft | 244 kts | 258° |
| 2026-04-26 22:03 | 21.25144 | -157.92263 | 4302 ft | 242 kts | 258° |
| 2026-04-26 22:03 | 21.24808 | -157.94033 | 4293 ft | 242 kts | 258° |
| 2026-04-26 22:04 | 21.24477 | -157.95811 | 4190 ft | 242 kts | 258° |
| 2026-04-26 22:04 | 21.24207 | -157.97569 | 4113 ft | 241 kts | 272° |
| 2026-04-26 22:04 | 21.24663 | -157.99265 | 4153 ft | 237 kts | 298° |
| 2026-04-26 22:04 | 21.25360 | -158.00860 | 4152 ft | 241 kts | 283° |
| 2026-04-26 22:05 | 21.25348 | -158.02649 | 4095 ft | 238 kts | 266° |
| 2026-04-26 22:05 | 21.25261 | -158.04442 | 4161 ft | 239 kts | 269° |
| 2026-04-26 22:05 | 21.25234 | -158.06229 | 4161 ft | 239 kts | 266° |
| 2026-04-26 22:05 | 21.25050 | -158.07986 | 4152 ft | 239 kts | 262° |
| 2026-04-26 22:06 | 21.24820 | -158.09744 | 4129 ft | 238 kts | 262° |
| 2026-04-26 22:06 | 21.24625 | -158.11523 | 4114 ft | 246 kts | 264° |
| 2026-04-26 22:06 | 21.24466 | -158.13377 | 4105 ft | 250 kts | 265° |
| 2026-04-26 22:06 | 21.24331 | -158.15233 | 4098 ft | 251 kts | 266° |
| 2026-04-26 22:07 | 21.24198 | -158.17102 | 4106 ft | 249 kts | 265° |
| 2026-04-26 22:07 | 21.24057 | -158.18956 | 4098 ft | 249 kts | 265° |
| 2026-04-26 22:07 | 21.24218 | -158.20762 | 4096 ft | 248 kts | 297° |
| 2026-04-26 22:07 | 21.25332 | -158.22102 | 4136 ft | 243 kts | 336° |
| 2026-04-26 22:08 | 21.26959 | -158.22392 | 4187 ft | 238 kts | 16° |
| 2026-04-26 22:08 | 21.28394 | -158.21594 | 4208 ft | 234 kts | 40° |
| 2026-04-26 22:08 | 21.29639 | -158.20441 | 4179 ft | 234 kts | 46° |
| 2026-04-26 22:08 | 21.30769 | -158.19202 | 4161 ft | 232 kts | 52° |
| 2026-04-26 22:09 | 21.31573 | -158.17707 | 4141 ft | 232 kts | 70° |
| 2026-04-26 22:09 | 21.32044 | -158.16067 | 4127 ft | 231 kts | 78° |
| 2026-04-26 22:09 | 21.32328 | -158.14385 | 4103 ft | 231 kts | 82° |
| 2026-04-26 22:09 | 21.32488 | -158.12688 | 4035 ft | 229 kts | 87° |
| 2026-04-26 22:10 | 21.32557 | -158.10920 | 3305 ft | 237 kts | 88° |
| 2026-04-26 22:10 | 21.32578 | -158.09211 | 2767 ft | 225 kts | 89° |
| 2026-04-26 22:10 | 21.32568 | -158.07547 | 2410 ft | 219 kts | 89° |
| 2026-04-26 22:10 | 21.32548 | -158.05985 | 2119 ft | 204 kts | 89° |
| 2026-04-26 22:11 | 21.32531 | -158.04462 | 1848 ft | 203 kts | 88° |
| 2026-04-26 22:11 | 21.32519 | -158.02972 | 1604 ft | 203 kts | 89° |
| 2026-04-26 22:11 | 21.32516 | -158.01453 | 1388 ft | 198 kts | 88° |
| 2026-04-26 22:11 | 21.32518 | -157.99974 | 1111 ft | 202 kts | 87° |
| 2026-04-26 22:12 | 21.32522 | -157.98464 | 824 ft | 201 kts | 89° |
| 2026-04-26 22:12 | 21.32527 | -157.97001 | 567 ft | 191 kts | 88° |
| 2026-04-26 22:12 | 21.32528 | -157.95580 | 294 ft | 188 kts | 88° |
| 2026-04-26 22:12 | 21.32530 | -157.94212 | 64 ft | 178 kts | 89° |
| 2026-04-26 22:13 | 21.32533 | -157.93001 | 24 ft | 138 kts | 89° |
| 2026-04-26 22:13 | 21.32532 | -157.92261 | 28 ft | 57 kts | 89° |
| 2026-04-26 22:13 | 21.32554 | -157.91971 | 28 ft | 19 kts | 51° |
| 2026-04-26 22:13 | 21.32652 | -157.91919 | 28 ft | 15 kts | 25° |
| 2026-04-26 22:14 | 21.32742 | -157.91873 | 24 ft | 15 kts | 26° |
| 2026-04-26 22:14 | 21.32774 | -157.91770 | 25 ft | 16 kts | 92° |
| 2026-04-26 22:14 | 21.32780 | -157.91659 | 27 ft | 12 kts | 62° |
| 2026-04-26 22:14 | 21.32838 | -157.91649 | 26 ft | 11 kts | 359° |
| 2026-04-26 22:15 | 21.32882 | -157.91650 | 26 ft | 0 kts | 359° |